createdAt,value
2022-08-03T00:00:40.315Z,21.47
2022-08-03T00:03:09.238Z,21.39
2022-08-03T00:05:40.131Z,21.48
2022-08-03T00:08:28.642Z,21.35
2022-08-03T00:10:57.133Z,21.42
2022-08-03T00:13:25.766Z,21.36
2022-08-03T00:15:54.961Z,21.26
2022-08-03T00:18:23.320Z,21.30
2022-08-03T00:20:53.241Z,21.32
2022-08-03T00:23:21.653Z,21.29
2022-08-03T00:25:50.329Z,21.25
2022-08-03T00:28:19.071Z,21.33
2022-08-03T00:30:47.952Z,21.34
2022-08-03T00:33:17.264Z,21.54
2022-08-03T00:35:51.068Z,21.33
2022-08-03T00:38:22.113Z,21.21
2022-08-03T00:40:51.134Z,21.17
2022-08-03T00:43:19.735Z,21.05
2022-08-03T00:45:48.385Z,21.13
2022-08-03T00:48:33.332Z,21.01
2022-08-03T00:51:02.704Z,20.98
2022-08-03T00:53:35.756Z,21.06
2022-08-03T00:56:04.439Z,20.72
2022-08-03T00:58:32.725Z,20.71
2022-08-03T01:01:01.599Z,20.66
2022-08-03T01:03:31.860Z,20.83
2022-08-03T01:06:08.673Z,20.90
2022-08-03T01:08:52.974Z,20.82
2022-08-03T01:11:30.891Z,20.75
2022-08-03T01:14:19.029Z,20.91
2022-08-03T01:16:57.977Z,21.10
2022-08-03T01:19:43.839Z,20.95
2022-08-03T01:22:38.333Z,20.82
2022-08-03T01:25:26.047Z,20.76
2022-08-03T01:28:07.857Z,20.83
2022-08-03T01:30:42.177Z,20.96
2022-08-03T01:33:18.862Z,20.72
2022-08-03T01:35:53.583Z,20.73
2022-08-03T01:38:28.352Z,20.83
2022-08-03T01:40:58.536Z,20.74
2022-08-03T01:44:27.509Z,20.65
2022-08-03T01:46:24.020Z,20.63
2022-08-03T01:48:52.903Z,20.68
2022-08-03T01:51:23.929Z,20.67
2022-08-03T01:54:14.689Z,20.58
2022-08-03T01:56:46.721Z,20.53
2022-08-03T01:59:18.041Z,20.58
2022-08-03T02:02:19.547Z,20.44
2022-08-03T02:04:40.559Z,20.35
2022-08-03T02:07:10.858Z,20.40
2022-08-03T02:09:41.998Z,20.29
2022-08-03T02:12:12.430Z,20.26
2022-08-03T02:14:44.212Z,20.20
2022-08-03T02:17:15.349Z,20.29
2022-08-03T02:19:44.956Z,20.25
2022-08-03T02:22:15.596Z,20.07
2022-08-03T02:24:44.532Z,20.18
2022-08-03T02:27:23.307Z,20.27
2022-08-03T02:29:57.425Z,20.35
2022-08-03T02:32:33.719Z,20.26
2022-08-03T02:35:04.865Z,20.10
2022-08-03T02:37:38.159Z,20.21
2022-08-03T02:40:14.146Z,20.18
2022-08-03T02:42:45.070Z,20.11
2022-08-03T02:45:15.822Z,20.03
2022-08-03T02:47:53.938Z,20.18
2022-08-03T02:50:26.156Z,20.05
2022-08-03T02:52:56.049Z,20.28
2022-08-03T02:55:27.237Z,20.17
2022-08-03T02:57:56.743Z,20.24
2022-08-03T03:00:31.427Z,20.04
2022-08-03T03:03:06.356Z,19.97
2022-08-03T03:05:55.448Z,20.05
2022-08-03T03:08:28.449Z,19.92
2022-08-03T03:11:00.630Z,19.92
2022-08-03T03:13:31.425Z,19.81
2022-08-03T03:16:03.473Z,19.79
2022-08-03T03:18:35.856Z,19.62
2022-08-03T03:21:05.144Z,19.69
2022-08-03T03:23:37.025Z,19.74
2022-08-03T03:26:07.036Z,19.77
2022-08-03T03:28:38.061Z,19.84
2022-08-03T03:31:07.254Z,19.73
2022-08-03T03:33:37.766Z,19.68
2022-08-03T03:36:08.467Z,19.81
2022-08-03T03:38:37.865Z,19.81
2022-08-03T03:41:06.835Z,19.98
2022-08-03T03:43:35.373Z,19.95
2022-08-03T03:46:04.641Z,19.87
2022-08-03T03:48:33.170Z,19.99
2022-08-03T03:51:03.412Z,20.08
2022-08-03T03:53:31.921Z,20.17
2022-08-03T03:56:02.510Z,20.30
2022-08-03T03:58:33.913Z,20.37
2022-08-03T04:01:02.607Z,20.41
2022-08-03T04:03:33.931Z,20.41
2022-08-03T04:06:21.600Z,20.44
2022-08-03T04:09:07.735Z,20.43
2022-08-03T04:11:41.620Z,20.53
2022-08-03T04:14:14.464Z,20.28
2022-08-03T04:16:47.429Z,20.27
2022-08-03T04:19:23.350Z,20.22
2022-08-03T04:21:58.666Z,20.06
2022-08-03T04:24:35.095Z,20.09
2022-08-03T04:27:07.225Z,20.23
2022-08-03T04:29:46.450Z,20.25
2022-08-03T04:32:19.044Z,20.08
2022-08-03T04:34:48.480Z,19.99
2022-08-03T04:37:26.294Z,20.14
2022-08-03T04:39:57.875Z,20.09
2022-08-03T04:42:28.694Z,20.22
2022-08-03T04:45:01.413Z,20.04
2022-08-03T04:47:33.460Z,20.35
2022-08-03T04:50:03.524Z,20.37
2022-08-03T04:52:35.062Z,20.24
2022-08-03T04:55:03.381Z,20.22
2022-08-03T04:57:31.746Z,20.14
2022-08-03T05:00:03.022Z,20.21
2022-08-03T05:02:32.807Z,20.43
2022-08-03T05:05:01.635Z,20.48
2022-08-03T05:07:35.937Z,20.77
2022-08-03T05:10:15.706Z,20.89
2022-08-03T05:12:46.879Z,21.00
2022-08-03T05:15:16.556Z,21.02
2022-08-03T05:17:44.892Z,21.24
2022-08-03T05:20:13.609Z,21.15
2022-08-03T05:22:45.030Z,21.35
2022-08-03T05:25:19.113Z,21.71
2022-08-03T05:27:49.419Z,21.95
2022-08-03T05:30:31.556Z,22.05
2022-08-03T05:33:04.668Z,22.31
2022-08-03T05:35:57.604Z,22.51
2022-08-03T05:38:28.477Z,22.77
2022-08-03T05:41:22.906Z,23.05
2022-08-03T05:43:47.940Z,23.54
2022-08-03T05:46:16.603Z,24.47
2022-08-03T05:48:45.722Z,25.90
2022-08-03T05:51:14.228Z,26.94
2022-08-03T05:53:44.371Z,28.36
2022-08-03T05:56:16.201Z,29.84
2022-08-03T05:58:47.251Z,30.40
2022-08-03T06:01:17.559Z,30.33
2022-08-03T06:03:46.510Z,30.40
2022-08-03T06:06:15.079Z,31.15
2022-08-03T06:08:44.448Z,29.95
2022-08-03T06:11:14.457Z,30.40
2022-08-03T06:13:45.218Z,30.65
2022-08-03T06:16:13.854Z,31.27
2022-08-03T06:18:42.321Z,31.12
2022-08-03T06:21:15.159Z,29.40
2022-08-03T06:23:54.368Z,29.55
2022-08-03T06:26:27.929Z,27.78
2022-08-03T06:28:57.434Z,27.89
2022-08-03T06:31:32.809Z,26.93
2022-08-03T06:34:32.474Z,25.74
2022-08-03T06:36:58.567Z,26.23
2022-08-03T06:39:30.566Z,26.13
2022-08-03T06:42:00.242Z,26.00
2022-08-03T06:44:28.586Z,26.00
2022-08-03T06:46:56.984Z,25.77
2022-08-03T06:49:25.685Z,25.77
2022-08-03T06:52:05.249Z,25.66
2022-08-03T06:54:43.711Z,25.71
2022-08-03T06:57:13.381Z,25.44
2022-08-03T07:00:06.470Z,25.49
2022-08-03T07:02:31.209Z,25.84
2022-08-03T07:04:59.697Z,26.07
2022-08-03T07:07:28.233Z,25.76
2022-08-03T07:09:58.189Z,25.90
2022-08-03T07:12:30.252Z,25.93
2022-08-03T07:15:02.577Z,26.22
2022-08-03T07:17:34.925Z,26.37
2022-08-03T07:20:07.890Z,26.71
2022-08-03T07:22:36.899Z,26.33
2022-08-03T07:25:06.330Z,26.75
2022-08-03T07:27:36.198Z,26.59
2022-08-03T07:30:09.382Z,26.70
2022-08-03T07:32:37.726Z,26.73
2022-08-03T07:35:24.652Z,26.73
2022-08-03T07:37:54.564Z,26.91
2022-08-03T07:40:28.162Z,26.98
2022-08-03T07:43:03.276Z,27.04
2022-08-03T07:45:32.575Z,27.53
2022-08-03T07:48:01.489Z,27.79
2022-08-03T07:50:30.407Z,28.24
2022-08-03T07:52:59.825Z,28.06
2022-08-03T07:55:30.299Z,28.11
2022-08-03T07:58:12.094Z,27.75
2022-08-03T08:00:40.950Z,27.91
2022-08-03T08:03:10.081Z,28.01
2022-08-03T08:05:38.947Z,27.63
2022-08-03T08:08:08.355Z,27.80
2022-08-03T08:10:37.459Z,28.24
2022-08-03T08:13:07.409Z,27.83
2022-08-03T08:15:36.132Z,28.05
2022-08-03T08:18:12.753Z,28.21
2022-08-03T08:20:41.528Z,28.20
2022-08-03T08:23:29.857Z,28.04
2022-08-03T08:26:00.367Z,28.08
2022-08-03T08:28:33.490Z,28.33
2022-08-03T08:31:02.597Z,28.36
2022-08-03T08:36:19.997Z,28.18
2022-08-03T08:38:48.725Z,28.76
2022-08-03T08:41:17.637Z,27.99
2022-08-03T08:43:49.553Z,28.20
2022-08-03T08:46:23.497Z,28.49
2022-08-03T08:48:54.155Z,28.50
2022-08-03T08:51:54.924Z,29.00
2022-08-03T08:54:19.357Z,28.83
2022-08-03T08:56:49.327Z,28.67
2022-08-03T08:59:20.712Z,29.03
2022-08-03T09:01:49.193Z,28.77
2022-08-03T09:04:18.108Z,29.04
2022-08-03T09:07:04.463Z,28.88
2022-08-03T09:10:05.941Z,29.08
2022-08-03T09:12:42.384Z,28.92
2022-08-03T09:15:32.263Z,29.09
2022-08-03T09:18:06.283Z,29.43
2022-08-03T09:20:36.964Z,29.14
2022-08-03T09:23:26.301Z,29.57
2022-08-03T09:26:01.639Z,29.68
2022-08-03T09:29:01.304Z,29.64
2022-08-03T09:31:35.017Z,29.99
2022-08-03T09:34:05.926Z,29.94
2022-08-03T09:36:41.194Z,30.14
2022-08-03T09:39:12.123Z,29.26
2022-08-03T09:41:42.700Z,29.64
2022-08-03T09:44:24.581Z,29.66
2022-08-03T09:46:57.400Z,29.59
2022-08-03T09:49:26.320Z,30.03
2022-08-03T09:52:33.519Z,30.35
2022-08-03T09:54:45.220Z,30.41
2022-08-03T09:57:23.906Z,30.20
2022-08-03T10:00:04.637Z,30.23
2022-08-03T10:02:43.944Z,30.44
2022-08-03T10:05:17.705Z,30.53
2022-08-03T10:07:50.951Z,30.71
2022-08-03T10:10:30.225Z,30.78
2022-08-03T10:13:02.216Z,30.68
2022-08-03T10:16:23.957Z,30.14
2022-08-03T10:18:20.397Z,30.43
2022-08-03T10:20:54.339Z,30.21
2022-08-03T10:23:24.907Z,30.92
2022-08-03T10:25:59.316Z,30.54
2022-08-03T10:28:32.952Z,30.85
2022-08-03T10:31:01.850Z,30.94
2022-08-03T10:33:51.967Z,30.80
2022-08-03T10:36:25.121Z,31.29
2022-08-03T10:38:57.023Z,31.56
2022-08-03T10:41:33.902Z,30.84
2022-08-03T10:44:12.036Z,31.23
2022-08-03T10:46:45.023Z,30.86
2022-08-03T10:49:33.820Z,30.75
2022-08-03T10:52:13.194Z,31.00
2022-08-03T10:55:07.535Z,31.01
2022-08-03T10:57:56.205Z,31.50
2022-08-03T11:00:30.249Z,31.31
2022-08-03T11:03:14.405Z,31.59
2022-08-03T11:05:45.790Z,31.16
2022-08-03T11:08:31.891Z,31.54
2022-08-03T11:11:03.793Z,31.25
2022-08-03T11:13:33.968Z,31.50
2022-08-03T11:16:21.958Z,31.89
2022-08-03T11:18:59.140Z,32.48
2022-08-03T11:22:00.201Z,32.04
2022-08-03T11:25:00.823Z,31.81
2022-08-03T11:27:32.802Z,32.17
2022-08-03T11:30:08.211Z,31.80
2022-08-03T11:32:58.966Z,31.49
2022-08-03T11:35:30.598Z,32.06
2022-08-03T11:38:13.316Z,31.82
2022-08-03T11:40:45.233Z,31.88
2022-08-03T11:43:46.856Z,32.22
2022-08-03T11:46:28.674Z,31.95
2022-08-03T11:49:10.403Z,31.95
2022-08-03T11:51:40.451Z,32.63
2022-08-03T11:54:11.407Z,32.48
2022-08-03T11:56:47.822Z,32.45
2022-08-03T11:59:21.542Z,32.71
2022-08-03T12:01:51.786Z,32.48
2022-08-03T12:04:20.436Z,32.31
2022-08-03T12:07:01.716Z,32.12
2022-08-03T12:09:31.403Z,32.28
2022-08-03T12:12:01.235Z,32.00
2022-08-03T12:14:50.786Z,32.43
2022-08-03T12:17:19.555Z,32.50
2022-08-03T12:19:48.237Z,32.62
2022-08-03T12:22:17.759Z,32.63
2022-08-03T12:24:47.982Z,32.67
2022-08-03T12:27:26.375Z,32.54
2022-08-03T12:29:58.188Z,32.36
2022-08-03T12:32:28.917Z,32.33
2022-08-03T12:35:00.830Z,32.58
2022-08-03T12:37:30.679Z,32.75
2022-08-03T12:40:10.147Z,32.56
2022-08-03T12:42:40.896Z,32.76
2022-08-03T12:45:24.171Z,32.68
2022-08-03T12:47:55.006Z,32.89
2022-08-03T12:50:31.343Z,32.79
2022-08-03T12:53:01.371Z,32.81
2022-08-03T12:55:57.586Z,32.74
2022-08-03T12:58:36.589Z,33.31
2022-08-03T13:01:10.404Z,32.23
2022-08-03T13:03:45.849Z,32.79
2022-08-03T13:06:20.902Z,33.43
2022-08-03T13:08:51.317Z,33.19
2022-08-03T13:11:50.635Z,33.18
2022-08-03T13:14:20.158Z,33.64
2022-08-03T13:16:49.754Z,32.90
2022-08-03T13:19:18.239Z,33.50
2022-08-03T13:21:53.674Z,33.33
2022-08-03T13:24:34.113Z,33.64
2022-08-03T13:28:02.366Z,33.54
2022-08-03T13:29:55.429Z,33.72
2022-08-03T13:32:24.156Z,33.53
2022-08-03T13:34:52.685Z,33.23
2022-08-03T13:37:21.700Z,33.66
2022-08-03T13:39:59.192Z,33.71
2022-08-03T13:42:31.317Z,33.52
2022-08-03T13:45:02.060Z,33.53
2022-08-03T13:47:30.494Z,33.89
2022-08-03T13:50:01.899Z,34.06
2022-08-03T13:52:36.460Z,33.30
2022-08-03T13:55:07.547Z,33.51
2022-08-03T13:58:12.013Z,32.93
2022-08-03T14:00:28.908Z,33.64
2022-08-03T14:03:06.722Z,33.40
2022-08-03T14:05:38.760Z,33.53
2022-08-03T14:08:08.696Z,33.73
2022-08-03T14:10:39.372Z,33.76
2022-08-03T14:13:09.961Z,33.90
2022-08-03T14:15:38.847Z,33.88
2022-08-03T14:18:15.262Z,33.71
2022-08-03T14:20:49.090Z,33.48
2022-08-03T14:23:20.443Z,33.95
2022-08-03T14:25:52.298Z,33.69
2022-08-03T14:28:24.759Z,33.68
2022-08-03T14:30:54.066Z,34.05
2022-08-03T14:33:23.272Z,33.69
2022-08-03T14:35:52.507Z,34.28
2022-08-03T14:38:21.366Z,34.23
2022-08-03T14:40:50.145Z,33.92
2022-08-03T14:43:20.377Z,33.41
2022-08-03T14:45:52.311Z,33.84
2022-08-03T14:50:27.989Z,34.17
2022-08-03T14:51:10.474Z,33.33
2022-08-03T14:53:39.133Z,33.70
2022-08-03T14:56:10.526Z,33.57
2022-08-03T14:58:39.619Z,33.50
2022-08-03T15:02:06.522Z,33.44
2022-08-03T15:03:58.605Z,33.95
2022-08-03T15:06:27.206Z,34.26
2022-08-03T15:09:13.957Z,34.01
2022-08-03T15:11:44.523Z,34.20
2022-08-03T15:14:14.677Z,33.94
2022-08-03T15:16:45.062Z,34.27
2022-08-03T15:20:03.744Z,34.43
2022-08-03T15:22:02.483Z,34.39
2022-08-03T15:24:30.919Z,34.01
2022-08-03T15:26:59.703Z,34.45
2022-08-03T15:30:07.741Z,34.25
2022-08-03T15:32:18.122Z,34.89
2022-08-03T15:34:50.386Z,35.25
2022-08-03T15:37:20.905Z,34.36
2022-08-03T15:39:58.941Z,34.31
2022-08-03T15:42:30.959Z,34.16
2022-08-03T15:45:00.221Z,34.44
2022-08-03T15:47:30.545Z,33.47
2022-08-03T15:49:59.489Z,33.79
2022-08-03T15:52:27.814Z,34.51
2022-08-03T15:54:56.345Z,34.48
2022-08-03T15:57:25.946Z,33.90
2022-08-03T15:59:54.430Z,33.93
2022-08-03T16:02:23.280Z,33.62
2022-08-03T16:04:54.415Z,33.76
2022-08-03T16:07:38.429Z,33.77
2022-08-03T16:10:08.211Z,33.84
2022-08-03T16:12:37.385Z,33.91
2022-08-03T16:15:07.674Z,33.70
2022-08-03T16:17:36.029Z,33.46
2022-08-03T16:20:10.558Z,33.54
2022-08-03T16:22:55.736Z,33.78
2022-08-03T16:25:24.505Z,33.68
2022-08-03T16:27:58.386Z,33.90
2022-08-03T16:30:35.542Z,33.64
2022-08-03T16:33:04.478Z,34.05
2022-08-03T16:35:34.674Z,33.97
2022-08-03T16:38:09.263Z,34.51
2022-08-03T16:40:38.609Z,33.95
2022-08-03T16:43:18.990Z,33.96
2022-08-03T16:45:48.957Z,33.84
2022-08-03T16:48:18.418Z,33.37
2022-08-03T16:50:48.398Z,33.66
2022-08-03T16:53:33.235Z,33.79
2022-08-03T16:56:10.788Z,33.92
2022-08-03T16:58:41.368Z,33.59
2022-08-03T17:01:21.878Z,33.60
2022-08-03T17:04:01.621Z,33.33
2022-08-03T17:06:36.273Z,32.69
2022-08-03T17:09:09.008Z,32.66
2022-08-03T17:11:44.135Z,32.72
2022-08-03T17:14:17.199Z,32.64
2022-08-03T17:16:52.617Z,32.88
2022-08-03T17:19:23.973Z,32.63
2022-08-03T17:22:04.310Z,32.64
2022-08-03T17:24:41.306Z,32.58
2022-08-03T17:27:23.104Z,32.67
2022-08-03T17:30:10.500Z,32.66
2022-08-03T17:32:52.643Z,32.54
2022-08-03T17:35:38.619Z,32.43
2022-08-03T17:38:13.798Z,32.28
2022-08-03T17:40:50.087Z,32.41
2022-08-03T17:44:13.477Z,32.01
2022-08-03T17:46:12.334Z,31.93
2022-08-03T17:48:42.578Z,31.74
2022-08-03T17:51:19.087Z,31.83
2022-08-03T17:54:01.628Z,31.69
2022-08-03T17:59:52.125Z,31.81
2022-08-03T18:03:10.868Z,32.01
2022-08-03T18:06:10.670Z,31.96
2022-08-03T18:08:32.382Z,32.08
2022-08-03T18:11:09.908Z,32.13
2022-08-03T18:13:58.047Z,31.79
2022-08-03T18:16:34.332Z,31.96
2022-08-03T18:19:13.434Z,31.98
2022-08-03T18:22:03.445Z,31.92
2022-08-03T18:24:32.712Z,31.93
2022-08-03T18:27:05.403Z,32.10
2022-08-03T18:29:37.148Z,32.14
2022-08-03T18:35:03.693Z,32.12
2022-08-03T18:37:51.887Z,32.05
2022-08-03T18:40:22.288Z,31.74
2022-08-03T18:42:53.019Z,31.85
2022-08-03T18:45:57.132Z,31.56
2022-08-03T18:48:27.131Z,31.66
2022-08-03T18:51:02.723Z,31.61
2022-08-03T18:54:03.978Z,31.45
2022-08-03T18:56:43.248Z,31.37
2022-08-03T18:59:30.588Z,31.24
2022-08-03T19:02:06.949Z,31.26
2022-08-03T19:04:45.485Z,31.26
2022-08-03T19:07:25.372Z,31.22
2022-08-03T19:09:56.861Z,30.98
2022-08-03T19:12:37.857Z,31.06
2022-08-03T19:15:13.539Z,30.91
2022-08-03T19:17:52.911Z,30.68
2022-08-03T19:20:27.004Z,30.57
2022-08-03T19:23:00.792Z,30.38
2022-08-03T19:25:34.737Z,30.22
2022-08-03T19:28:05.889Z,30.01
2022-08-03T19:30:39.778Z,30.10
2022-08-03T19:33:10.973Z,30.07
2022-08-03T19:35:51.105Z,30.01
2022-08-03T19:38:27.632Z,29.93
2022-08-03T19:41:17.361Z,29.62
2022-08-03T19:44:23.418Z,29.72
2022-08-03T19:46:59.418Z,29.20
2022-08-03T19:50:06.200Z,29.10
2022-08-03T19:52:31.897Z,29.27
2022-08-03T19:55:06.746Z,29.21
2022-08-03T19:57:40.664Z,29.21
2022-08-03T20:00:15.114Z,28.91
2022-08-03T20:02:45.955Z,29.02
2022-08-03T20:05:15.835Z,28.92
2022-08-03T20:07:47.583Z,28.87
2022-08-03T20:10:18.230Z,28.47
2022-08-03T20:12:48.404Z,28.42
2022-08-03T20:15:30.834Z,28.42
2022-08-03T20:18:02.643Z,28.42
2022-08-03T20:20:33.976Z,28.18
2022-08-03T20:23:08.658Z,28.27
2022-08-03T20:25:57.123Z,28.26
2022-08-03T20:28:33.057Z,28.07
2022-08-03T20:31:02.202Z,27.90
2022-08-03T20:33:46.383Z,27.90
2022-08-03T20:36:21.128Z,28.05
2022-08-03T20:38:51.982Z,27.89
2022-08-03T20:41:21.202Z,27.80
2022-08-03T20:43:51.074Z,27.77
2022-08-03T20:46:32.005Z,27.77
2022-08-03T20:49:09.069Z,27.75
2022-08-03T20:51:49.727Z,27.81
2022-08-03T20:54:29.681Z,27.37
2022-08-03T20:57:00.728Z,26.73
2022-08-03T20:59:50.092Z,26.63
2022-08-03T21:02:29.851Z,26.90
2022-08-03T21:05:03.002Z,26.89
2022-08-03T21:07:45.502Z,26.63
2022-08-03T21:10:29.334Z,26.54
2022-08-03T21:12:55.925Z,31.75
2022-08-03T21:12:58.266Z,32.20
2022-08-03T21:13:15.997Z,26.77
2022-08-03T21:16:06.673Z,27.01
2022-08-03T21:18:47.178Z,27.05
2022-08-03T21:21:23.490Z,27.13
2022-08-03T21:23:54.559Z,27.07
2022-08-03T21:26:26.548Z,26.96
2022-08-03T21:28:56.907Z,26.77
2022-08-03T21:31:26.938Z,26.59
2022-08-03T21:33:58.051Z,26.70
2022-08-03T21:36:32.219Z,26.30
2022-08-03T21:39:01.511Z,26.22
2022-08-03T21:41:33.275Z,26.17
2022-08-03T21:44:03.293Z,26.34
2022-08-03T21:46:36.646Z,26.46
2022-08-03T21:50:05.503Z,26.44
2022-08-03T21:52:03.966Z,26.38
2022-08-03T21:54:37.128Z,26.04
2022-08-03T21:57:12.810Z,26.18
2022-08-03T21:59:48.972Z,25.94
2022-08-03T22:02:24.084Z,25.75
2022-08-03T22:04:56.202Z,25.88
2022-08-03T22:07:28.623Z,25.61
2022-08-03T22:09:59.405Z,25.66
2022-08-03T22:12:31.931Z,25.71
2022-08-03T22:15:02.438Z,25.98
2022-08-03T22:17:54.748Z,25.91
2022-08-03T22:20:22.959Z,25.91
2022-08-03T22:22:57.043Z,25.41
2022-08-03T22:25:30.595Z,25.35
2022-08-03T22:28:03.188Z,25.61
2022-08-03T22:30:33.189Z,25.71
2022-08-03T22:33:05.372Z,25.33
2022-08-03T22:35:47.651Z,25.35
2022-08-03T22:38:19.538Z,25.26
2022-08-03T22:40:50.865Z,25.10
2022-08-03T22:43:24.063Z,25.19
2022-08-03T22:46:10.239Z,25.05
2022-08-03T22:48:41.819Z,25.06
2022-08-03T22:51:11.483Z,25.04
2022-08-03T22:53:41.717Z,25.01
2022-08-03T22:56:10.060Z,24.96
2022-08-03T22:58:38.376Z,25.00
2022-08-03T23:01:09.557Z,24.96
2022-08-03T23:04:00.056Z,24.74
2022-08-03T23:06:34.766Z,24.15
2022-08-03T23:09:07.695Z,24.21
2022-08-03T23:11:45.325Z,24.21
2022-08-03T23:14:19.921Z,24.30
2022-08-03T23:16:51.509Z,24.20
2022-08-03T23:19:25.036Z,24.19
2022-08-03T23:22:02.423Z,24.20
2022-08-03T23:24:39.211Z,24.41
2022-08-03T23:27:09.608Z,24.63
2022-08-03T23:29:39.873Z,24.27
2022-08-03T23:32:09.396Z,24.37
2022-08-03T23:34:58.267Z,24.13
2022-08-03T23:37:28.751Z,23.93
2022-08-03T23:39:59.485Z,24.04
2022-08-03T23:42:28.347Z,24.06
2022-08-03T23:44:59.404Z,24.15
2022-08-03T23:47:46.711Z,24.06
2022-08-03T23:50:17.978Z,24.12
2022-08-03T23:52:58.080Z,23.73
2022-08-03T23:55:54.006Z,23.66
2022-08-03T23:58:42.699Z,23.89
